Airfield :
LOGIN :

Register | Disclaimer

   EN    FR    IT 

 










Legend :    VFR   Marginal VFR   IFR   Intensive IFR   Very Intensive IFR
Visi :
Ceiling :
>= 8 km
>= 3000ft
5 to 8 km
1000 to 3000 ft
1500m to 5 km
500 to 1000 ft
800 to 1500m
200 to 500 ft
< 800m
< 200 ft
Symbols :   Thunderstorms  Fog  Heavy snow  Heavy precipitations  Wind > 20 kt
SIGMETs :     Misc.  Thunderstorms  Icing  Turbulence  Mountain Waves  Volcanic Ashes






- Airport Elevation : 375 ft
- IATA code : MST


EHBK - Maastricht Aachen

CURRENT METAR :
  • 030955Z AUTO 24008KT 190V290 9999 NSC 22/09 Q1006 NOSIG

EXPIRED METARs :
  • 030925Z AUTO 27007KT 210V320 9999 NSC 21/09 Q1007 NOSIG
  • 030855Z AUTO 26006KT 200V310 9999 NSC 20/08 Q1007 NOSIG
  • 030825Z AUTO 26006KT 190V340 9999 NSC 20/09 Q1007 NOSIG
  • 030755Z AUTO 25006KT 210V320 9999 NSC 19/10 Q1007 NOSIG
  • 030725Z AUTO 25005KT 210V300 9999 NSC 18/10 Q1007 NOSIG

TAF COR TAF EHBK
Valid from the 03 at 06:00 until the 04 at 12:00 UTC


030504Z 0306/0412 24005KT CAVOK
PROB30
TEMPO 0306/0311 6000 SHRA FEW060CB
BECMG 0316/0319 33010KT



MET'MAP, your aeronautical weather chart ! - Copyright ORBIFLY December 2007 - Disclaimer

ORBIFLY MET'MAP TEAM :

Programming & Development : Alexandra Zaïnal
Concept & original design : Baudouin d'Aumeries
Assistance for programming : Marc-Olivier Méhu
Technical & hardware support : Manuel Goepfert

Contact : metmap@orbifly.com




SOURCES & CREDITS :

   NOAA